sensor_id;sensor_type;location;lat;lon;timestamp;pressure;altitude;pressure_sealevel;temperature;humidity
56825;BME280;42705;50.326;18.772;2023-10-19T00:01:32;97843.38;;;6.17;57.28
56825;BME280;42705;50.326;18.772;2023-10-19T00:06:56;97836.39;;;6.25;57.30
56825;BME280;42705;50.326;18.772;2023-10-19T00:12:18;97827.23;;;6.26;57.33
56825;BME280;42705;50.326;18.772;2023-10-19T00:17:43;97820.48;;;6.24;57.38
56825;BME280;42705;50.326;18.772;2023-10-19T00:23:07;97811.55;;;6.18;57.25
56825;BME280;42705;50.326;18.772;2023-10-19T00:28:31;97796.89;;;6.11;57.27
56825;BME280;42705;50.326;18.772;2023-10-19T00:33:57;97788.73;;;6.03;57.47
56825;BME280;42705;50.326;18.772;2023-10-19T00:39:23;97786.73;;;5.95;57.59
56825;BME280;42705;50.326;18.772;2023-10-19T00:44:48;97772.00;;;5.91;57.73
56825;BME280;42705;50.326;18.772;2023-10-19T00:50:12;97765.35;;;5.93;57.96
56825;BME280;42705;50.326;18.772;2023-10-19T00:55:39;97758.27;;;5.95;58.03
56825;BME280;42705;50.326;18.772;2023-10-19T01:01:04;97751.23;;;5.93;58.12
56825;BME280;42705;50.326;18.772;2023-10-19T01:06:27;97743.75;;;5.87;58.13
56825;BME280;42705;50.326;18.772;2023-10-19T01:11:54;97731.95;;;5.78;58.29
56825;BME280;42705;50.326;18.772;2023-10-19T01:17:16;97728.74;;;5.69;58.26
56825;BME280;42705;50.326;18.772;2023-10-19T01:22:48;97708.89;;;5.60;58.49
56825;BME280;42705;50.326;18.772;2023-10-19T01:28:12;97699.55;;;5.58;58.68
56825;BME280;42705;50.326;18.772;2023-10-19T01:33:38;97698.53;;;5.57;58.83
56825;BME280;42705;50.326;18.772;2023-10-19T01:39:00;97684.52;;;5.48;59.15
56825;BME280;42705;50.326;18.772;2023-10-19T01:44:22;97678.59;;;5.36;59.24
56825;BME280;42705;50.326;18.772;2023-10-19T01:49:46;97671.52;;;5.25;59.51
56825;BME280;42705;50.326;18.772;2023-10-19T01:55:13;97665.25;;;5.17;59.67
56825;BME280;42705;50.326;18.772;2023-10-19T02:00:40;97656.29;;;5.14;59.80
56825;BME280;42705;50.326;18.772;2023-10-19T02:06:05;97646.29;;;5.11;60.11
56825;BME280;42705;50.326;18.772;2023-10-19T02:11:39;97634.59;;;5.04;60.26
56825;BME280;42705;50.326;18.772;2023-10-19T02:17:03;97629.78;;;4.95;60.36
56825;BME280;42705;50.326;18.772;2023-10-19T02:22:25;97625.88;;;4.90;60.85
56825;BME280;42705;50.326;18.772;2023-10-19T02:27:47;97616.38;;;4.81;60.75
56825;BME280;42705;50.326;18.772;2023-10-19T02:33:10;97613.28;;;4.79;60.87
56825;BME280;42705;50.326;18.772;2023-10-19T02:38:34;97602.71;;;4.79;60.98
56825;BME280;42705;50.326;18.772;2023-10-19T02:44:12;97594.14;;;4.82;61.08
56825;BME280;42705;50.326;18.772;2023-10-19T02:49:40;97582.30;;;4.70;61.35
56825;BME280;42705;50.326;18.772;2023-10-19T02:55:05;97570.23;;;4.59;61.35
56825;BME280;42705;50.326;18.772;2023-10-19T03:00:27;97557.02;;;4.53;61.61
56825;BME280;42705;50.326;18.772;2023-10-19T03:05:54;97547.46;;;4.49;61.89
56825;BME280;42705;50.326;18.772;2023-10-19T03:11:17;97542.27;;;4.52;62.21
56825;BME280;42705;50.326;18.772;2023-10-19T03:16:41;97526.56;;;4.49;62.18
56825;BME280;42705;50.326;18.772;2023-10-19T03:22:04;97523.06;;;4.47;62.41
56825;BME280;42705;50.326;18.772;2023-10-19T03:27:27;97513.36;;;4.50;62.50
56825;BME280;42705;50.326;18.772;2023-10-19T03:32:49;97522.33;;;4.52;62.67
56825;BME280;42705;50.326;18.772;2023-10-19T03:38:12;97524.90;;;4.53;62.51
56825;BME280;42705;50.326;18.772;2023-10-19T03:43:39;97509.64;;;4.55;62.87
56825;BME280;42705;50.326;18.772;2023-10-19T03:49:02;97503.33;;;4.58;62.79
56825;BME280;42705;50.326;18.772;2023-10-19T03:54:32;97496.49;;;4.63;62.81
56825;BME280;42705;50.326;18.772;2023-10-19T03:59:54;97481.52;;;4.73;62.88
56825;BME280;42705;50.326;18.772;2023-10-19T04:05:19;97472.77;;;4.87;62.98
56825;BME280;42705;50.326;18.772;2023-10-19T04:10:44;97463.40;;;5.02;63.21
56825;BME280;42705;50.326;18.772;2023-10-19T04:16:06;97456.55;;;5.14;62.83
56825;BME280;42705;50.326;18.772;2023-10-19T04:21:31;97437.17;;;5.24;62.92
56825;BME280;42705;50.326;18.772;2023-10-19T04:26:53;97418.70;;;5.27;62.71
56825;BME280;42705;50.326;18.772;2023-10-19T04:32:21;97408.08;;;5.32;62.57
56825;BME280;42705;50.326;18.772;2023-10-19T04:37:51;97408.34;;;5.45;62.63
56825;BME280;42705;50.326;18.772;2023-10-19T04:43:13;97410.75;;;5.60;62.59
56825;BME280;42705;50.326;18.772;2023-10-19T04:48:35;97414.58;;;5.72;62.58
56825;BME280;42705;50.326;18.772;2023-10-19T04:53:57;97404.81;;;5.80;62.53
56825;BME280;42705;50.326;18.772;2023-10-19T04:59:19;97398.06;;;5.88;62.55
56825;BME280;42705;50.326;18.772;2023-10-19T05:04:41;97396.05;;;5.91;62.44
56825;BME280;42705;50.326;18.772;2023-10-19T05:10:03;97386.39;;;5.93;62.18
56825;BME280;42705;50.326;18.772;2023-10-19T05:15:27;97378.28;;;6.00;62.38
56825;BME280;42705;50.326;18.772;2023-10-19T05:20:49;97379.52;;;6.10;62.18
56825;BME280;42705;50.326;18.772;2023-10-19T05:26:12;97379.96;;;6.17;62.18
56825;BME280;42705;50.326;18.772;2023-10-19T05:31:36;97391.93;;;6.25;62.07
56825;BME280;42705;50.326;18.772;2023-10-19T05:37:13;97391.80;;;6.24;61.87
56825;BME280;42705;50.326;18.772;2023-10-19T05:42:35;97387.00;;;6.19;61.84
56825;BME280;42705;50.326;18.772;2023-10-19T05:47:57;97379.20;;;6.19;61.80
56825;BME280;42705;50.326;18.772;2023-10-19T05:53:19;97366.64;;;6.22;61.80
56825;BME280;42705;50.326;18.772;2023-10-19T05:58:43;97367.24;;;6.35;61.77
56825;BME280;42705;50.326;18.772;2023-10-19T06:04:06;97357.46;;;6.49;61.78
56825;BME280;42705;50.326;18.772;2023-10-19T06:09:28;97353.80;;;6.62;61.58
56825;BME280;42705;50.326;18.772;2023-10-19T06:14:53;97349.55;;;6.69;61.65
56825;BME280;42705;50.326;18.772;2023-10-19T06:20:15;97341.44;;;6.74;61.40
56825;BME280;42705;50.326;18.772;2023-10-19T06:25:48;97338.13;;;6.75;61.40
56825;BME280;42705;50.326;18.772;2023-10-19T06:31:10;97329.41;;;6.79;61.21
56825;BME280;42705;50.326;18.772;2023-10-19T06:36:32;97325.91;;;6.87;61.06
56825;BME280;42705;50.326;18.772;2023-10-19T06:41:53;97313.66;;;6.95;61.04
56825;BME280;42705;50.326;18.772;2023-10-19T06:47:15;97301.45;;;7.05;61.02
56825;BME280;42705;50.326;18.772;2023-10-19T06:52:38;97293.22;;;7.13;60.73
56825;BME280;42705;50.326;18.772;2023-10-19T06:58:01;97273.95;;;7.32;60.69
56825;BME280;42705;50.326;18.772;2023-10-19T07:03:23;97267.14;;;7.50;60.65
56825;BME280;42705;50.326;18.772;2023-10-19T07:08:45;97264.39;;;7.68;60.38
56825;BME280;42705;50.326;18.772;2023-10-19T07:14:08;97274.45;;;7.75;60.20
56825;BME280;42705;50.326;18.772;2023-10-19T07:19:31;97260.08;;;7.83;60.14
56825;BME280;42705;50.326;18.772;2023-10-19T07:24:54;97251.29;;;7.95;60.00
56825;BME280;42705;50.326;18.772;2023-10-19T07:30:17;97241.60;;;8.05;60.04
56825;BME280;42705;50.326;18.772;2023-10-19T07:35:44;97244.70;;;8.14;60.07
56825;BME280;42705;50.326;18.772;2023-10-19T07:41:08;97244.55;;;8.26;59.55
56825;BME280;42705;50.326;18.772;2023-10-19T07:46:31;97242.64;;;8.42;59.59
56825;BME280;42705;50.326;18.772;2023-10-19T07:51:53;97238.94;;;8.53;59.21
56825;BME280;42705;50.326;18.772;2023-10-19T07:57:15;97231.30;;;8.68;58.65
56825;BME280;42705;50.326;18.772;2023-10-19T08:02:37;97227.61;;;8.82;58.50
56825;BME280;42705;50.326;18.772;2023-10-19T08:08:09;97226.60;;;8.97;57.99
56825;BME280;42705;50.326;18.772;2023-10-19T08:13:32;97221.29;;;9.12;58.00
56825;BME280;42705;50.326;18.772;2023-10-19T08:18:54;97217.69;;;9.28;57.51
56825;BME280;42705;50.326;18.772;2023-10-19T08:24:16;97204.30;;;9.39;57.43
56825;BME280;42705;50.326;18.772;2023-10-19T08:29:39;97196.39;;;9.48;56.97
56825;BME280;42705;50.326;18.772;2023-10-19T08:35:03;97187.30;;;9.58;56.64
56825;BME280;42705;50.326;18.772;2023-10-19T08:40:26;97195.02;;;9.68;56.34
56825;BME280;42705;50.326;18.772;2023-10-19T08:45:49;97195.02;;;9.77;56.15
56825;BME280;42705;50.326;18.772;2023-10-19T08:51:11;97184.95;;;9.87;56.13
56825;BME280;42705;50.326;18.772;2023-10-19T08:56:33;97173.80;;;9.95;55.73
56825;BME280;42705;50.326;18.772;2023-10-19T09:02:01;97159.36;;;10.06;55.96
56825;BME280;42705;50.326;18.772;2023-10-19T09:07:24;97144.87;;;10.16;55.06
56825;BME280;42705;50.326;18.772;2023-10-19T09:12:59;97150.91;;;10.24;54.96
56825;BME280;42705;50.326;18.772;2023-10-19T09:18:23;97147.02;;;10.34;54.72
56825;BME280;42705;50.326;18.772;2023-10-19T09:23:46;97160.52;;;10.42;54.53
56825;BME280;42705;50.326;18.772;2023-10-19T09:29:13;97160.65;;;10.50;54.85
56825;BME280;42705;50.326;18.772;2023-10-19T09:34:40;97163.85;;;10.51;54.95
56825;BME280;42705;50.326;18.772;2023-10-19T09:40:06;97162.67;;;10.53;55.00
56825;BME280;42705;50.326;18.772;2023-10-19T09:45:36;97151.92;;;10.58;55.11
56825;BME280;42705;50.326;18.772;2023-10-19T09:51:02;97144.02;;;10.65;55.10
56825;BME280;42705;50.326;18.772;2023-10-19T09:56:29;97127.58;;;10.75;55.35
56825;BME280;42705;50.326;18.772;2023-10-19T10:02:07;97114.11;;;10.86;55.77
56825;BME280;42705;50.326;18.772;2023-10-19T10:07:31;97097.89;;;10.96;56.10
56825;BME280;42705;50.326;18.772;2023-10-19T10:12:53;97094.55;;;11.01;56.37
56825;BME280;42705;50.326;18.772;2023-10-19T10:18:15;97093.91;;;11.04;56.84
56825;BME280;42705;50.326;18.772;2023-10-19T10:23:44;97078.96;;;11.05;56.85
56825;BME280;42705;50.326;18.772;2023-10-19T10:29:13;97063.61;;;11.10;57.19
56825;BME280;42705;50.326;18.772;2023-10-19T10:34:42;97055.55;;;11.13;57.41
56825;BME280;42705;50.326;18.772;2023-10-19T10:40:05;97051.39;;;11.25;57.94
56825;BME280;42705;50.326;18.772;2023-10-19T10:45:27;97043.48;;;11.35;58.00
56825;BME280;42705;50.326;18.772;2023-10-19T10:50:49;97020.17;;;11.46;58.13
56825;BME280;42705;50.326;18.772;2023-10-19T10:56:11;97018.93;;;11.54;58.15
56825;BME280;42705;50.326;18.772;2023-10-19T11:01:33;97014.08;;;11.56;58.13
56825;BME280;42705;50.326;18.772;2023-10-19T11:06:55;97006.44;;;11.57;58.46
56825;BME280;42705;50.326;18.772;2023-10-19T11:12:17;96999.84;;;11.65;58.81
56825;BME280;42705;50.326;18.772;2023-10-19T11:17:43;97004.97;;;11.59;58.57
56825;BME280;42705;50.326;18.772;2023-10-19T11:23:07;97013.88;;;11.49;58.68
56825;BME280;42705;50.326;18.772;2023-10-19T11:28:29;97012.77;;;11.41;59.06
56825;BME280;42705;50.326;18.772;2023-10-19T11:33:52;97005.05;;;11.44;59.22
56825;BME280;42705;50.326;18.772;2023-10-19T11:39:14;97011.23;;;11.54;59.58
56825;BME280;42705;50.326;18.772;2023-10-19T11:44:37;97015.30;;;11.58;59.83
56825;BME280;42705;50.326;18.772;2023-10-19T11:49:59;97002.98;;;11.65;59.84
56825;BME280;42705;50.326;18.772;2023-10-19T11:55:21;96996.64;;;11.71;60.18
56825;BME280;42705;50.326;18.772;2023-10-19T12:00:44;96983.73;;;11.74;60.62
56825;BME280;42705;50.326;18.772;2023-10-19T12:06:09;96980.77;;;11.77;60.87
56825;BME280;42705;50.326;18.772;2023-10-19T12:11:31;96978.10;;;11.86;60.99
56825;BME280;42705;50.326;18.772;2023-10-19T12:16:54;96967.45;;;11.92;61.24
56825;BME280;42705;50.326;18.772;2023-10-19T12:22:15;96962.71;;;11.89;61.35
56825;BME280;42705;50.326;18.772;2023-10-19T12:27:37;96961.33;;;11.81;61.47
56825;BME280;42705;50.326;18.772;2023-10-19T12:33:01;96949.09;;;11.76;61.82
56825;BME280;42705;50.326;18.772;2023-10-19T12:38:23;96939.23;;;11.79;61.89
56825;BME280;42705;50.326;18.772;2023-10-19T12:43:45;96930.34;;;11.90;62.34
56825;BME280;42705;50.326;18.772;2023-10-19T12:49:08;96923.70;;;12.02;62.28
56825;BME280;42705;50.326;18.772;2023-10-19T12:54:36;96913.80;;;12.04;62.12
56825;BME280;42705;50.326;18.772;2023-10-19T12:59:59;96910.58;;;11.95;62.03
56825;BME280;42705;50.326;18.772;2023-10-19T13:05:41;96906.79;;;11.99;62.47
56825;BME280;42705;50.326;18.772;2023-10-19T13:11:04;96894.67;;;12.05;62.83
56825;BME280;42705;50.326;18.772;2023-10-19T13:16:26;96881.92;;;12.16;63.05
56825;BME280;42705;50.326;18.772;2023-10-19T13:21:50;96876.52;;;12.17;62.93
56825;BME280;42705;50.326;18.772;2023-10-19T13:27:12;96868.45;;;12.09;63.02
56825;BME280;42705;50.326;18.772;2023-10-19T13:32:34;96861.44;;;12.02;63.06
56825;BME280;42705;50.326;18.772;2023-10-19T13:37:56;96854.50;;;12.00;63.18
56825;BME280;42705;50.326;18.772;2023-10-19T13:43:18;96835.06;;;12.00;63.35
56825;BME280;42705;50.326;18.772;2023-10-19T13:48:41;96822.14;;;11.94;63.74
56825;BME280;42705;50.326;18.772;2023-10-19T13:54:03;96815.65;;;11.85;63.65
56825;BME280;42705;50.326;18.772;2023-10-19T13:59:28;96802.52;;;11.83;63.90
56825;BME280;42705;50.326;18.772;2023-10-19T14:04:50;96802.26;;;11.80;63.91
56825;BME280;42705;50.326;18.772;2023-10-19T14:10:13;96816.71;;;11.73;64.07
56825;BME280;42705;50.326;18.772;2023-10-19T14:15:38;96836.11;;;11.58;64.42
56825;BME280;42705;50.326;18.772;2023-10-19T14:21:00;96829.83;;;11.53;64.47
56825;BME280;42705;50.326;18.772;2023-10-19T14:26:22;96833.83;;;11.53;64.60
56825;BME280;42705;50.326;18.772;2023-10-19T14:31:45;96840.31;;;11.56;64.89
56825;BME280;42705;50.326;18.772;2023-10-19T14:37:07;96834.76;;;11.53;64.84
56825;BME280;42705;50.326;18.772;2023-10-19T14:42:31;96836.48;;;11.49;65.04
56825;BME280;42705;50.326;18.772;2023-10-19T14:47:56;96838.09;;;11.52;65.27
56825;BME280;42705;50.326;18.772;2023-10-19T14:53:21;96832.14;;;11.56;65.28
56825;BME280;42705;50.326;18.772;2023-10-19T14:58:43;96829.00;;;11.57;65.30
56825;BME280;42705;50.326;18.772;2023-10-19T15:04:05;96822.89;;;11.53;65.41
56825;BME280;42705;50.326;18.772;2023-10-19T15:09:27;96822.98;;;11.53;65.63
56825;BME280;42705;50.326;18.772;2023-10-19T15:14:50;96816.20;;;11.56;65.46
56825;BME280;42705;50.326;18.772;2023-10-19T15:20:14;96819.36;;;11.54;65.84
56825;BME280;42705;50.326;18.772;2023-10-19T15:25:39;96813.26;;;11.46;65.96
56825;BME280;42705;50.326;18.772;2023-10-19T15:31:02;96801.52;;;11.41;65.84
56825;BME280;42705;50.326;18.772;2023-10-19T15:36:23;96797.42;;;11.39;65.99
56825;BME280;42705;50.326;18.772;2023-10-19T15:41:45;96796.33;;;11.38;66.24
56825;BME280;42705;50.326;18.772;2023-10-19T15:47:08;96795.77;;;11.36;66.54
56825;BME280;42705;50.326;18.772;2023-10-19T15:52:38;96793.46;;;11.36;66.50
56825;BME280;42705;50.326;18.772;2023-10-19T15:58:06;96789.98;;;11.37;66.61
56825;BME280;42705;50.326;18.772;2023-10-19T16:03:30;96780.64;;;11.35;66.59
56825;BME280;42705;50.326;18.772;2023-10-19T16:08:52;96781.12;;;11.26;66.92
56825;BME280;42705;50.326;18.772;2023-10-19T16:14:15;96783.56;;;11.22;67.04
56825;BME280;42705;50.326;18.772;2023-10-19T16:19:41;96786.68;;;11.19;67.06
56825;BME280;42705;50.326;18.772;2023-10-19T16:25:03;96780.75;;;11.12;67.29
56825;BME280;42705;50.326;18.772;2023-10-19T16:30:25;96786.39;;;11.07;67.42
56825;BME280;42705;50.326;18.772;2023-10-19T16:35:53;96787.40;;;11.06;67.80
56825;BME280;42705;50.326;18.772;2023-10-19T16:41:15;96789.52;;;11.00;68.03
56825;BME280;42705;50.326;18.772;2023-10-19T16:46:38;96787.86;;;10.93;68.12
56825;BME280;42705;50.326;18.772;2023-10-19T16:52:00;96790.15;;;10.89;68.28
56825;BME280;42705;50.326;18.772;2023-10-19T16:57:23;96784.86;;;10.93;68.54
56825;BME280;42705;50.326;18.772;2023-10-19T17:02:48;96781.17;;;10.93;68.59
56825;BME280;42705;50.326;18.772;2023-10-19T17:08:10;96776.74;;;10.94;68.73
56825;BME280;42705;50.326;18.772;2023-10-19T17:13:35;96766.27;;;10.97;68.69
56825;BME280;42705;50.326;18.772;2023-10-19T17:18:57;96767.90;;;11.01;68.75
56825;BME280;42705;50.326;18.772;2023-10-19T17:24:20;96758.44;;;11.04;68.96
56825;BME280;42705;50.326;18.772;2023-10-19T17:29:43;96754.51;;;11.05;68.96
56825;BME280;42705;50.326;18.772;2023-10-19T17:35:07;96758.59;;;11.06;69.11
56825;BME280;42705;50.326;18.772;2023-10-19T17:40:30;96759.39;;;11.08;69.18
56825;BME280;42705;50.326;18.772;2023-10-19T17:45:52;96760.70;;;11.07;69.33
56825;BME280;42705;50.326;18.772;2023-10-19T17:51:16;96756.52;;;11.09;69.55
56825;BME280;42705;50.326;18.772;2023-10-19T17:56:39;96742.65;;;11.12;69.40
56825;BME280;42705;50.326;18.772;2023-10-19T18:02:03;96739.45;;;11.14;69.40
56825;BME280;42705;50.326;18.772;2023-10-19T18:07:28;96733.67;;;11.08;69.44
56825;BME280;42705;50.326;18.772;2023-10-19T18:12:50;96738.56;;;11.07;69.73
56825;BME280;42705;50.326;18.772;2023-10-19T18:18:13;96729.54;;;11.12;69.83
56825;BME280;42705;50.326;18.772;2023-10-19T18:23:35;96724.52;;;11.13;69.91
56825;BME280;42705;50.326;18.772;2023-10-19T18:28:57;96719.49;;;11.11;69.85
56825;BME280;42705;50.326;18.772;2023-10-19T18:34:21;96715.70;;;11.14;70.07
56825;BME280;42705;50.326;18.772;2023-10-19T18:39:44;96713.90;;;11.22;69.81
56825;BME280;42705;50.326;18.772;2023-10-19T18:45:07;96715.41;;;11.25;69.93
56825;BME280;42705;50.326;18.772;2023-10-19T18:50:31;96717.70;;;11.23;69.66
56825;BME280;42705;50.326;18.772;2023-10-19T18:55:54;96720.10;;;11.26;69.93
56825;BME280;42705;50.326;18.772;2023-10-19T19:01:17;96711.02;;;11.29;69.76
56825;BME280;42705;50.326;18.772;2023-10-19T19:06:39;96697.42;;;11.26;69.71
56825;BME280;42705;50.326;18.772;2023-10-19T19:12:03;96689.98;;;11.28;69.76
56825;BME280;42705;50.326;18.772;2023-10-19T19:17:25;96685.59;;;11.33;69.81
56825;BME280;42705;50.326;18.772;2023-10-19T19:22:48;96679.28;;;11.31;69.91
56825;BME280;42705;50.326;18.772;2023-10-19T19:28:10;96680.09;;;11.31;70.08
56825;BME280;42705;50.326;18.772;2023-10-19T19:33:37;96682.08;;;11.36;70.00
56825;BME280;42705;50.326;18.772;2023-10-19T19:39:00;96676.54;;;11.39;69.84
56825;BME280;42705;50.326;18.772;2023-10-19T19:44:23;96678.66;;;11.37;69.92
56825;BME280;42705;50.326;18.772;2023-10-19T19:49:45;96671.05;;;11.36;69.80
56825;BME280;42705;50.326;18.772;2023-10-19T19:55:09;96658.11;;;11.36;70.15
56825;BME280;42705;50.326;18.772;2023-10-19T20:00:35;96643.58;;;11.31;70.00
56825;BME280;42705;50.326;18.772;2023-10-19T20:05:58;96633.45;;;11.22;70.25
56825;BME280;42705;50.326;18.772;2023-10-19T20:11:20;96622.76;;;11.21;70.40
56825;BME280;42705;50.326;18.772;2023-10-19T20:16:43;96615.48;;;11.23;70.68
56825;BME280;42705;50.326;18.772;2023-10-19T20:22:06;96613.38;;;11.25;70.70
56825;BME280;42705;50.326;18.772;2023-10-19T20:27:29;96598.74;;;11.30;70.69
56825;BME280;42705;50.326;18.772;2023-10-19T20:32:51;96596.66;;;11.39;70.75
56825;BME280;42705;50.326;18.772;2023-10-19T20:38:14;96597.46;;;11.43;70.59
56825;BME280;42705;50.326;18.772;2023-10-19T20:43:41;96587.95;;;11.44;70.56
56825;BME280;42705;50.326;18.772;2023-10-19T20:49:06;96567.04;;;11.48;70.42
56825;BME280;42705;50.326;18.772;2023-10-19T20:54:27;96555.11;;;11.49;70.72
56825;BME280;42705;50.326;18.772;2023-10-19T20:59:49;96556.27;;;11.47;70.57
56825;BME280;42705;50.326;18.772;2023-10-19T21:05:11;96536.88;;;11.49;70.54
56825;BME280;42705;50.326;18.772;2023-10-19T21:10:36;96538.84;;;11.47;70.57
56825;BME280;42705;50.326;18.772;2023-10-19T21:15:57;96534.70;;;11.43;70.58
56825;BME280;42705;50.326;18.772;2023-10-19T21:21:19;96529.79;;;11.42;70.90
56825;BME280;42705;50.326;18.772;2023-10-19T21:26:42;96522.84;;;11.40;70.83
56825;BME280;42705;50.326;18.772;2023-10-19T21:32:04;96533.37;;;11.42;70.85
56825;BME280;42705;50.326;18.772;2023-10-19T21:37:26;96532.62;;;11.38;70.84
56825;BME280;42705;50.326;18.772;2023-10-19T21:42:49;96534.48;;;11.40;70.77
56825;BME280;42705;50.326;18.772;2023-10-19T21:48:12;96536.91;;;11.41;70.81
56825;BME280;42705;50.326;18.772;2023-10-19T21:53:34;96546.73;;;11.38;70.94
56825;BME280;42705;50.326;18.772;2023-10-19T21:58:56;96547.55;;;11.39;70.92
56825;BME280;42705;50.326;18.772;2023-10-19T22:04:18;96541.06;;;11.42;70.83
56825;BME280;42705;50.326;18.772;2023-10-19T22:09:40;96537.17;;;11.43;71.03
56825;BME280;42705;50.326;18.772;2023-10-19T22:15:03;96534.98;;;11.47;71.18
56825;BME280;42705;50.326;18.772;2023-10-19T22:20:25;96526.04;;;11.51;71.00
56825;BME280;42705;50.326;18.772;2023-10-19T22:25:47;96525.62;;;11.49;71.03
56825;BME280;42705;50.326;18.772;2023-10-19T22:31:08;96517.64;;;11.51;71.03
56825;BME280;42705;50.326;18.772;2023-10-19T22:36:33;96513.45;;;11.56;71.07
56825;BME280;42705;50.326;18.772;2023-10-19T22:41:54;96512.76;;;11.56;71.00
56825;BME280;42705;50.326;18.772;2023-10-19T22:47:19;96512.00;;;11.57;70.70
56825;BME280;42705;50.326;18.772;2023-10-19T22:52:41;96512.42;;;11.53;70.98
56825;BME280;42705;50.326;18.772;2023-10-19T22:58:03;96501.82;;;11.49;71.00
56825;BME280;42705;50.326;18.772;2023-10-19T23:03:25;96499.63;;;11.53;71.20
56825;BME280;42705;50.326;18.772;2023-10-19T23:08:47;96495.89;;;11.56;71.09
56825;BME280;42705;50.326;18.772;2023-10-19T23:14:09;96498.94;;;11.58;71.12
56825;BME280;42705;50.326;18.772;2023-10-19T23:19:33;96481.67;;;11.54;71.03
56825;BME280;42705;50.326;18.772;2023-10-19T23:24:59;96478.52;;;11.53;71.03
56825;BME280;42705;50.326;18.772;2023-10-19T23:30:22;96480.15;;;11.47;71.04
56825;BME280;42705;50.326;18.772;2023-10-19T23:35:45;96475.02;;;11.44;71.23
56825;BME280;42705;50.326;18.772;2023-10-19T23:41:06;96470.39;;;11.48;71.49
56825;BME280;42705;50.326;18.772;2023-10-19T23:46:28;96473.27;;;11.50;71.31
56825;BME280;42705;50.326;18.772;2023-10-19T23:51:51;96484.14;;;11.46;71.38
56825;BME280;42705;50.326;18.772;2023-10-19T23:57:13;96486.70;;;11.50;71.39
